White Sands, New Mexico
Current Conditions -  °F | °C
As of 3:56 AM on Wednesday 26 Nov 2014 (Local Time) from KM63 Reporting Station
Clear Clear  
Wind Chill: 36°   Ceiling: Unl
Heat Index: 39°   Visibility: 10mi
Dew Point:   Wind: 5mph
Humidity: 27%   Direction: 60°ENE
Pressure: 30.3"   Gusts: NA
Location:  32.2605°N, 106.471°W
Report Text: KM63 261056Z AUTO 06004KT 10SM CLR 04/M14 A3030 RMK AO2 SLP238 T00401138
Loading
Personal Weather Stations






























Interactive Weather Map New forecast layout! Learn more

10-Day Weather Forecast

Advertisements
Track Severe Weather on mobile